Time;durP1;ratioP1;P1;durP2;ratioP2;P2;SDS_P1;SDS_P2;PMS_P1;PMS_P2;Temp;Humidity;BMP_temperature;BMP_pressure;BME280_temperature;BME280_humidity;BME280_pressure;Samples;Min_cycle;Max_cycle;Signal;HPM_P1;HPM_P2
2021/06/04 00:01:23;;;;;;;4.10;2.85;;;;;;;14.15;77.86;100933.41;1759413;81;20977;-73
2021/06/04 00:03:51;;;;;;;4.15;2.58;;;;;;;14.13;77.95;100931.35;1759716;81;20945;-74
2021/06/04 00:06:18;;;;;;;7.72;2.58;;;;;;;14.07;77.99;100934.80;1759286;81;20965;-74
2021/06/04 00:08:51;;;;;;;3.50;2.95;;;;;;;14.04;78.10;100930.20;1759883;81;20862;-72
2021/06/04 00:11:29;;;;;;;6.58;3.35;;;;;;;14.03;78.23;100934.63;1759498;81;21480;-72
2021/06/04 00:14:04;;;;;;;4.53;2.98;;;;;;;14.02;78.28;100934.25;1759668;81;20918;-72
2021/06/04 00:16:35;;;;;;;6.58;2.95;;;;;;;13.99;78.26;100929.69;1759020;81;20922;-74
2021/06/04 00:19:07;;;;;;;5.28;3.15;;;;;;;14.00;78.37;100928.72;1721667;79;21086;-74
2021/06/04 00:21:39;;;;;;;9.78;3.27;;;;;;;14.01;78.49;100931.26;1668933;86;20923;-74
2021/06/04 00:24:08;;;;;;;3.25;2.80;;;;;;;14.05;78.54;100923.95;1668838;86;20951;-74
2021/06/04 00:26:36;;;;;;;4.60;3.30;;;;;;;14.09;78.36;100930.27;1713988;80;20896;-73
2021/06/04 00:29:14;;;;;;;8.65;3.62;;;;;;;14.12;78.35;100930.52;1752569;79;21433;-70
2021/06/04 00:31:42;;;;;;;4.22;3.45;;;;;;;14.15;78.24;100926.81;1764470;79;20987;-74
2021/06/04 00:34:12;;;;;;;3.98;3.58;;;;;;;14.16;78.21;100932.44;1749595;79;21396;-76
2021/06/04 00:36:42;;;;;;;8.40;3.40;;;;;;;14.18;78.11;100930.55;1715829;79;20908;-73
2021/06/04 00:39:12;;;;;;;3.52;3.15;;;;;;;14.19;78.16;100937.05;1745455;80;21365;-74
2021/06/04 00:41:48;;;;;;;4.55;3.27;;;;;;;14.21;78.16;100936.94;1742312;80;20897;-73
2021/06/04 00:44:17;;;;;;;6.30;3.30;;;;;;;14.20;78.14;100943.16;1669570;80;21020;-73
2021/06/04 00:46:44;;;;;;;6.90;3.72;;;;;;;14.19;78.10;100939.68;1707418;80;20908;-75
2021/06/04 00:49:13;;;;;;;6.03;2.70;;;;;;;14.19;78.10;100937.52;1744919;79;22240;-74
2021/06/04 00:51:53;;;;;;;6.25;3.05;;;;;;;14.19;78.15;100940.16;1741925;78;21204;-74
2021/06/04 00:54:22;;;;;;;7.03;3.80;;;;;;;14.21;78.04;100936.94;1734304;78;20896;-75
2021/06/04 00:56:59;;;;;;;7.30;3.55;;;;;;;14.19;78.02;100934.88;1663569;83;20892;31
2021/06/04 00:59:34;;;;;;;5.45;3.35;;;;;;;14.18;78.03;100939.30;1694752;80;20916;-75
2021/06/04 01:02:07;;;;;;;5.92;3.75;;;;;;;14.18;78.00;100934.02;1708195;80;21102;31
2021/06/04 01:04:36;;;;;;;4.22;3.30;;;;;;;14.16;78.02;100939.91;1732403;78;20938;-70
2021/06/04 01:07:17;;;;;;;6.17;3.37;;;;;;;14.14;78.10;100939.17;1724264;81;20946;-73
2021/06/04 01:10:43;;;;;;;3.58;3.27;;;;;;;14.09;78.18;100933.34;1714365;80;21420;-72
2021/06/04 01:13:59;;;;;;;5.80;2.70;;;;;;;14.03;78.33;100937.27;1716982;80;21408;-73
2021/06/04 01:17:01;;;;;;;6.05;3.35;;;;;;;14.01;78.46;100935.70;1704491;79;21142;-75
2021/06/04 01:19:51;;;;;;;2.95;2.27;;;;;;;14.01;78.59;100936.53;1677204;85;20915;-74
2021/06/04 01:22:46;;;;;;;6.65;2.83;;;;;;;14.00;78.55;100941.42;1679913;81;20948;-73
2021/06/04 01:25:58;;;;;;;7.58;3.12;;;;;;;13.94;78.66;100937.91;1646981;81;21340;-74
2021/06/04 01:28:36;;;;;;;4.97;2.98;;;;;;;13.94;78.72;100941.87;1708687;79;21443;-73
2021/06/04 01:31:35;;;;;;;4.85;3.02;;;;;;;13.92;78.67;100935.86;1754222;80;21025;-74
2021/06/04 01:34:17;;;;;;;2.62;2.42;;;;;;;13.89;78.71;100940.00;1761550;79;20882;-75
2021/06/04 01:36:54;;;;;;;6.20;3.05;;;;;;;13.87;78.90;100942.77;1691362;81;21051;-74
2021/06/04 01:39:38;;;;;;;4.45;2.92;;;;;;;13.89;78.92;100936.05;1694314;80;20908;-74
2021/06/04 01:42:07;;;;;;;5.42;2.67;;;;;;;13.91;78.94;100936.79;1728037;83;20951;-75
2021/06/04 01:44:43;;;;;;;2.90;2.60;;;;;;;13.96;79.03;100936.47;1721653;80;21731;-76
2021/06/04 01:47:14;;;;;;;5.25;3.60;;;;;;;13.99;79.02;100936.28;1691465;79;20928;-76
2021/06/04 01:49:45;;;;;;;3.65;3.35;;;;;;;14.00;78.90;100940.10;1677231;81;21050;-76
2021/06/04 01:52:26;;;;;;;6.62;3.30;;;;;;;14.00;78.86;100938.78;1687869;80;21055;-70
2021/06/04 01:55:15;;;;;;;3.37;2.55;;;;;;;14.03;78.87;100940.39;1717027;79;21500;-74
2021/06/04 01:58:03;;;;;;;4.62;3.08;;;;;;;14.02;78.74;100940.84;1713852;78;21155;31
2021/06/04 02:00:35;;;;;;;5.15;2.75;;;;;;;13.97;78.78;100949.55;1670026;80;21621;-74
2021/06/04 02:03:13;;;;;;;7.05;3.00;;;;;;;13.93;78.91;100956.47;1784140;79;20991;-74
2021/06/04 02:05:46;;;;;;;4.55;2.95;;;;;;;13.92;79.08;100950.80;1763776;78;21331;-72
2021/06/04 02:08:18;;;;;;;4.62;3.37;;;;;;;13.93;79.16;100957.78;1742652;80;20920;-74
2021/06/04 02:11:02;;;;;;;4.87;3.45;;;;;;;13.94;79.21;100953.73;1696905;81;20967;-73
2021/06/04 02:13:36;;;;;;;8.83;3.83;;;;;;;13.96;79.24;100959.75;1656295;81;20933;31
2021/06/04 02:16:39;;;;;;;5.95;3.80;;;;;;;14.00;79.13;100955.09;1666430;82;20932;-73
2021/06/04 02:19:37;;;;;;;6.65;3.10;;;;;;;14.03;79.05;100957.53;1707312;82;21033;-73
2021/06/04 02:22:21;;;;;;;3.58;3.10;;;;;;;14.02;78.92;100952.70;1712069;83;21676;-75
2021/06/04 02:25:21;;;;;;;8.28;4.87;;;;;;;14.02;78.98;100958.47;1676914;84;21161;-74
2021/06/04 02:27:56;;;;;;;5.08;3.33;;;;;;;13.99;78.97;100954.25;1636091;85;20935;-74
2021/06/04 02:30:37;;;;;;;6.22;3.40;;;;;;;13.96;79.11;100954.92;1693504;82;20935;-74
2021/06/04 02:33:28;;;;;;;5.17;3.40;;;;;;;13.97;79.13;100951.35;1724143;81;20999;-74
2021/06/04 02:36:08;;;;;;;6.37;3.87;;;;;;;13.97;79.18;100952.19;1709407;79;21626;31
2021/06/04 02:38:43;;;;;;;7.03;3.87;;;;;;;13.97;79.11;100955.31;1701254;82;21506;-74
2021/06/04 02:41:24;;;;;;;5.53;3.92;;;;;;;13.97;79.08;100959.27;1725604;82;20899;-74
2021/06/04 02:43:54;;;;;;;11.00;3.98;;;;;;;13.98;79.05;100954.34;1689707;82;20971;-73
2021/06/04 02:46:54;;;;;;;4.83;3.60;;;;;;;14.00;79.07;100955.09;1694030;83;20924;-73
2021/06/04 02:49:23;;;;;;;6.10;3.20;;;;;;;14.01;78.98;100956.80;1742029;79;20904;-73
2021/06/04 02:52:10;;;;;;;5.65;3.47;;;;;;;14.03;78.99;100959.69;1746773;82;21182;-73
2021/06/04 02:54:45;;;;;;;5.33;3.47;;;;;;;14.04;78.89;100954.77;1746710;81;21480;-71
2021/06/04 02:57:25;;;;;;;3.65;2.75;;;;;;;14.07;78.70;100955.02;1760933;79;20923;-75
2021/06/04 02:59:52;;;;;;;6.40;3.27;;;;;;;14.06;78.50;100962.58;1775785;77;20881;-72
2021/06/04 03:02:24;;;;;;;4.60;3.00;;;;;;;14.01;78.52;100964.70;1723454;80;20869;-68
2021/06/04 03:04:56;;;;;;;5.03;3.15;;;;;;;13.99;78.72;100962.64;1708610;80;21148;-70
2021/06/04 03:07:31;;;;;;;6.25;2.92;;;;;;;13.99;78.75;100962.16;1682777;78;20917;-69
2021/06/04 03:10:07;;;;;;;3.90;2.52;;;;;;;14.00;78.75;100962.52;1721900;78;21360;-73
2021/06/04 03:12:38;;;;;;;4.87;3.42;;;;;;;14.02;78.75;100961.10;1671524;80;20956;-73
2021/06/04 03:15:48;;;;;;;3.60;3.05;;;;;;;14.03;78.73;100958.85;1679894;79;21083;-73
2021/06/04 03:18:20;;;;;;;4.75;3.00;;;;;;;14.06;78.71;100962.09;1691669;81;21250;-73
2021/06/04 03:20:51;;;;;;;2.80;2.60;;;;;;;14.07;78.63;100965.13;1681745;78;21638;-73
2021/06/04 03:23:21;;;;;;;5.55;3.17;;;;;;;14.06;78.62;100962.09;1710711;80;22810;-73
2021/06/04 03:25:58;;;;;;;8.78;2.98;;;;;;;14.08;78.66;100963.33;1691603;79;21039;-66
2021/06/04 03:28:32;;;;;;;8.75;3.20;;;;;;;14.09;78.65;100968.50;1713287;80;20908;-72
2021/06/04 03:30:58;;;;;;;4.67;3.50;;;;;;;14.13;78.60;100964.32;1711403;79;21972;-72
2021/06/04 03:33:32;;;;;;;5.80;3.45;;;;;;;14.13;78.54;100968.27;1701262;79;20937;-72
2021/06/04 03:35:59;;;;;;;5.47;3.22;;;;;;;14.14;78.52;100967.31;1659406;84;21015;-72
2021/06/04 03:38:26;;;;;;;4.10;2.98;;;;;;;14.09;78.52;100963.23;1684177;82;21014;-73
2021/06/04 03:40:55;;;;;;;6.60;3.77;;;;;;;14.07;78.64;100963.80;1672150;81;20941;-68
2021/06/04 03:43:28;;;;;;;4.10;2.62;;;;;;;14.08;78.70;100966.80;1707773;80;21713;-68
2021/06/04 03:45:56;;;;;;;6.78;3.62;;;;;;;14.11;78.80;100972.33;1685648;80;20932;-69
2021/06/04 03:48:31;;;;;;;7.70;4.33;;;;;;;14.14;78.75;100971.27;1716113;78;21392;-70
2021/06/04 03:52:36;;;;;;;5.30;3.62;;;;;;;14.24;78.83;100971.84;1753437;77;22582;-73
2021/06/04 03:55:08;;;;;;;3.80;3.25;;;;;;;14.23;78.76;100971.49;1742245;81;20902;-73
2021/06/04 03:57:36;;;;;;;5.17;3.70;;;;;;;14.29;78.67;100976.80;1779400;80;21440;-75
2021/06/04 04:00:17;;;;;;;4.97;3.45;;;;;;;14.29;78.46;100974.16;1689156;80;20936;-74
2021/06/04 04:02:44;;;;;;;3.98;3.50;;;;;;;14.28;78.42;100976.44;1688375;79;21011;-74
2021/06/04 04:05:12;;;;;;;4.60;3.55;;;;;;;14.27;78.50;100970.33;1723498;79;20935;-73
2021/06/04 04:07:39;;;;;;;4.28;3.52;;;;;;;14.29;78.54;100976.34;1764099;81;20858;-74
2021/06/04 04:10:09;;;;;;;8.50;3.50;;;;;;;14.32;78.54;100971.33;1722290;79;21997;-72
2021/06/04 04:12:40;;;;;;;5.53;3.55;;;;;;;14.32;78.42;100970.01;1726866;81;21415;31
2021/06/04 04:15:17;;;;;;;6.65;3.85;;;;;;;14.33;78.37;100969.04;1744956;79;20954;-73
2021/06/04 04:17:40;;;;;;;8.20;3.40;;;;;;;14.38;78.42;100970.03;1786352;79;20868;-73
2021/06/04 04:20:10;;;;;;;6.55;3.87;;;;;;;14.41;78.24;100969.84;1780990;78;20865;-68
2021/06/04 04:22:37;;;;;;;7.25;4.53;;;;;;;14.44;78.25;100974.89;1757481;80;21129;-73
2021/06/04 04:25:06;;;;;;;4.95;4.45;;;;;;;14.49;78.14;100970.95;1755453;78;21433;-73
2021/06/04 04:27:34;;;;;;;5.12;4.62;;;;;;;14.49;78.14;100970.95;1741570;81;20930;-74
2021/06/04 04:30:01;;;;;;;8.60;7.03;;;;;;;14.56;78.01;100969.23;1725152;79;20967;-76
2021/06/04 04:32:28;;;;;;;4.87;3.83;;;;;;;14.59;77.83;100972.52;1759619;79;20903;-73
2021/06/04 04:34:57;;;;;;;12.45;4.60;;;;;;;14.65;77.83;100971.22;1704931;78;21155;-75
2021/06/04 04:37:24;;;;;;;5.83;4.62;;;;;;;14.69;77.75;100971.38;1708719;79;21046;-74
2021/06/04 04:39:50;;;;;;;6.00;4.15;;;;;;;14.73;77.50;100969.37;1689696;79;20925;-75
2021/06/04 04:42:20;;;;;;;7.30;4.10;;;;;;;14.75;77.51;100966.14;1695203;84;20897;-75
2021/06/04 04:44:50;;;;;;;5.22;3.77;;;;;;;14.81;77.34;100966.54;1726359;80;21292;-74
2021/06/04 04:47:18;;;;;;;6.53;4.80;;;;;;;14.86;77.35;100964.40;1755755;81;21330;-72
2021/06/04 04:49:45;;;;;;;9.15;5.37;;;;;;;14.92;77.21;100967.92;1744790;78;21048;-74
2021/06/04 04:52:12;;;;;;;5.67;4.10;;;;;;;14.98;76.98;100967.10;1765382;81;20921;-75
2021/06/04 04:54:55;;;;;;;8.78;4.28;;;;;;;15.01;76.86;100965.58;1712759;80;21505;-72
2021/06/04 04:57:23;;;;;;;4.80;4.30;;;;;;;15.05;76.60;100967.02;1718642;80;20849;-77
2021/06/04 04:59:50;;;;;;;6.10;3.98;;;;;;;15.09;76.74;100973.77;1764297;81;21136;-77
2021/06/04 05:02:17;;;;;;;7.28;4.12;;;;;;;15.15;76.57;100977.77;1750454;80;20944;-74
2021/06/04 05:04:44;;;;;;;9.53;4.95;;;;;;;15.19;76.41;100977.42;1756757;81;21367;-76
2021/06/04 05:07:11;;;;;;;8.35;4.22;;;;;;;15.22;76.21;100979.83;1730812;80;21778;-71
2021/06/04 05:09:38;;;;;;;5.20;4.12;;;;;;;15.27;76.18;100978.16;1717109;79;20904;-76
2021/06/04 05:12:05;;;;;;;5.03;3.85;;;;;;;15.30;76.00;100978.80;1716325;83;21107;-75
2021/06/04 05:14:32;;;;;;;6.22;4.53;;;;;;;15.31;75.74;100975.66;1716297;83;21562;-73
2021/06/04 05:17:01;;;;;;;6.30;4.40;;;;;;;15.34;75.84;100994.79;1716113;83;20949;-75
2021/06/04 05:19:50;;;;;;;5.30;4.30;;;;;;;15.39;75.71;100998.90;1716862;83;20911;-75
2021/06/04 05:22:17;;;;;;;7.70;4.45;;;;;;;15.39;75.71;100998.90;1747772;80;21086;-75
2021/06/04 05:24:45;;;;;;;6.22;4.78;;;;;;;15.45;75.45;100996.64;1706357;81;21946;-77
2021/06/04 05:27:11;;;;;;;10.78;4.20;;;;;;;15.48;75.11;100998.20;1716257;81;21286;-75
2021/06/04 05:29:39;;;;;;;5.47;4.70;;;;;;;15.49;74.93;101007.33;1727519;80;20983;-75
2021/06/04 05:32:06;;;;;;;6.58;4.28;;;;;;;15.49;75.05;101003.84;1715460;79;21067;-73
2021/06/04 05:34:33;;;;;;;8.80;4.97;;;;;;;15.50;75.09;101006.87;1700448;79;21349;-77
2021/06/04 05:37:00;;;;;;;4.17;3.75;;;;;;;;;;1729248;81;21126;-75
2021/06/04 05:39:27;;;;;;;5.20;3.95;;;;;;;15.48;75.03;101011.42;1734370;82;21493;-75
2021/06/04 05:41:59;;;;;;;4.45;3.45;;;;;;;15.52;75.13;101003.15;1741466;80;20871;-75
2021/06/04 05:44:29;;;;;;;5.95;3.58;;;;;;;15.58;75.03;101007.12;1789460;79;20840;-73
2021/06/04 05:47:17;;;;;;;6.60;3.42;;;;;;;15.62;74.77;101013.87;1789521;79;21017;-73
2021/06/04 05:49:45;;;;;;;4.17;3.80;;;;;;;15.64;74.51;101009.30;1743510;81;21965;-72
2021/06/04 05:52:14;;;;;;;7.40;3.77;;;;;;;15.67;74.60;101009.55;1750947;82;20979;-74
2021/06/04 05:54:42;;;;;;;9.23;4.25;;;;;;;15.70;74.88;101010.66;1751115;82;20899;-74
2021/06/04 05:57:09;;;;;;;3.75;3.33;;;;;;;15.74;74.63;101015.64;1746186;81;21485;-74
2021/06/04 05:59:36;;;;;;;6.83;3.67;;;;;;;15.74;74.44;101011.67;1728315;80;20983;-73
2021/06/04 06:02:07;;;;;;;5.65;4.35;;;;;;;15.77;74.28;101011.08;1703879;80;20936;-74
2021/06/04 06:04:34;;;;;;;8.00;4.20;;;;;;;15.80;74.16;101010.34;1706397;82;21057;-76
2021/06/04 06:07:02;;;;;;;6.78;3.60;;;;;;;15.82;74.13;101009.75;1731539;79;21397;-75
2021/06/04 06:09:29;;;;;;;5.78;3.47;;;;;;;15.85;74.09;101012.64;1725492;83;20948;-78
2021/06/04 06:11:57;;;;;;;9.25;3.55;;;;;;;15.83;73.79;101019.39;1726193;81;21350;-77
2021/06/04 06:14:24;;;;;;;8.20;3.22;;;;;;;15.80;73.75;101012.16;1725578;81;21154;-77
2021/06/04 06:16:52;;;;;;;6.50;3.10;;;;;;;15.84;73.83;101010.97;1725609;83;20935;-77
2021/06/04 06:19:20;;;;;;;5.92;3.25;;;;;;;15.92;74.07;101011.23;1725505;82;21366;-77
2021/06/04 06:21:50;;;;;;;5.25;3.20;;;;;;;15.99;73.67;101007.64;1725794;81;21076;-77
2021/06/04 06:24:17;;;;;;;3.50;2.75;;;;;;;16.08;73.66;101010.41;1725452;83;20928;-76
2021/06/04 06:26:46;;;;;;;4.95;3.42;;;;;;;16.27;73.55;101012.95;1725660;81;21113;-79
2021/06/04 06:29:14;;;;;;;6.83;3.92;;;;;;;16.33;72.52;101017.28;1725574;82;20979;-77
2021/06/04 06:31:41;;;;;;;5.58;3.12;;;;;;;16.33;72.52;101017.28;1704968;83;21042;-78
2021/06/04 06:34:09;;;;;;;6.35;3.45;;;;;;;16.36;72.47;101013.55;1725415;81;20880;-77
2021/06/04 06:36:39;;;;;;;3.22;2.90;;;;;;;16.45;72.20;101018.61;1725484;81;20963;-77
2021/06/04 06:39:16;;;;;;;2.87;2.58;;;;;;;16.54;71.66;101019.20;1725426;83;22024;-76
2021/06/04 06:41:44;;;;;;;2.55;2.35;;;;;;;16.54;71.66;101019.20;1725733;83;20951;-80
2021/06/04 06:44:12;;;;;;;6.05;2.75;;;;;;;16.56;71.72;101022.12;1725384;81;20912;-76
2021/06/04 06:46:39;;;;;;;3.87;2.65;;;;;;;16.60;71.48;101021.86;1725767;81;21038;-80
2021/06/04 06:49:07;;;;;;;4.83;2.92;;;;;;;16.60;71.48;101021.86;1725561;83;21409;-75
2021/06/04 06:51:35;;;;;;;4.20;2.92;;;;;;;16.64;71.59;101024.15;1725554;81;21212;-78
2021/06/04 06:54:07;;;;;;;4.80;2.70;;;;;;;16.65;71.35;101021.88;1725450;81;20987;-78
2021/06/04 06:56:35;;;;;;;4.42;3.00;;;;;;;16.60;71.24;101028.00;1725827;83;20960;-78
2021/06/04 06:59:02;;;;;;;7.60;2.85;;;;;;;16.50;71.58;101028.38;1725412;82;20986;-79
2021/06/04 07:01:29;;;;;;;5.40;2.40;;;;;;;16.50;71.58;101028.38;1725737;81;20940;-79
2021/06/04 07:03:56;;;;;;;8.03;3.17;;;;;;;16.52;71.97;101034.40;1725525;81;21204;-78
2021/06/04 07:06:28;;;;;;;6.72;3.00;;;;;;;16.55;72.11;101029.69;1725257;81;20955;-79
2021/06/04 07:08:55;;;;;;;3.90;3.10;;;;;;;16.63;72.08;101027.77;1725387;83;20921;-79
2021/06/04 07:11:27;;;;;;;4.25;3.05;;;;;;;16.69;71.89;101027.75;1725471;83;20968;-77
2021/06/04 07:13:57;;;;;;;8.98;4.15;;;;;;;16.70;71.81;101034.27;1725607;81;21436;-70
2021/06/04 07:16:24;;;;;;;7.25;2.70;;;;;;;16.73;71.91;101030.03;1725494;83;21225;-70
2021/06/04 07:18:53;;;;;;;8.95;2.75;;;;;;;16.82;71.46;101034.28;1725455;81;21483;-70
2021/06/04 07:21:23;;;;;;;5.75;3.17;;;;;;;16.82;71.46;101034.28;1725440;83;21053;-71
2021/06/04 07:23:50;;;;;;;4.25;2.98;;;;;;;16.85;71.61;101032.70;1725351;81;21330;-71
2021/06/04 07:26:18;;;;;;;6.97;2.87;;;;;;;16.87;71.26;101032.09;1725392;81;20924;-70
2021/06/04 07:28:45;;;;;;;6.00;3.37;;;;;;;16.88;70.92;101035.12;1725619;83;21125;-74
2021/06/04 07:31:13;;;;;;;3.98;2.92;;;;;;;16.89;71.28;101034.98;1725325;83;20987;-70
2021/06/04 07:33:49;;;;;;;3.62;2.80;;;;;;;16.91;71.05;101040.16;1725371;81;20948;-70
2021/06/04 07:36:21;;;;;;;4.30;2.08;;;;;;;16.89;71.19;101034.14;1725379;83;21058;-72
2021/06/04 07:38:48;;;;;;;5.85;2.22;;;;;;;16.89;71.23;101040.28;1725803;83;20912;-79
2021/06/04 07:41:15;;;;;;;4.35;2.20;;;;;;;16.91;71.55;101041.48;1725461;81;21638;-74
2021/06/04 07:43:44;;;;;;;3.90;2.25;;;;;;;16.92;71.68;101045.34;1725311;81;20991;-76
2021/06/04 07:46:12;;;;;;;4.97;2.70;;;;;;;16.92;71.68;101045.34;1725633;83;20976;-86
2021/06/04 07:48:39;;;;;;;6.15;2.77;;;;;;;16.96;71.63;101043.28;1725696;83;20916;-80
2021/06/04 07:51:09;;;;;;;7.25;3.62;;;;;;;16.99;71.46;101041.73;1725654;81;21026;-77
2021/06/04 07:53:39;;;;;;;7.70;3.37;;;;;;;17.04;71.39;101045.33;1725970;81;21021;-82
2021/06/04 07:56:06;;;;;;;3.17;2.80;;;;;;;17.19;71.38;101047.58;1725285;81;20927;-80
2021/06/04 07:58:35;;;;;;;5.92;2.92;;;;;;;17.19;71.38;101047.58;1725539;81;20865;-80
2021/06/04 08:01:03;;;;;;;3.42;3.12;;;;;;;17.37;71.32;101045.72;1725538;83;21010;-79
2021/06/04 08:03:32;;;;;;;5.58;2.33;;;;;;;17.55;70.32;101045.53;1725926;83;21342;-77
2021/06/04 08:06:00;;;;;;;5.95;2.98;;;;;;;17.75;70.27;101045.20;1725389;83;21167;-73
2021/06/04 08:08:29;;;;;;;6.53;2.62;;;;;;;17.94;70.01;101041.89;1727419;81;20852;-75
2021/06/04 08:10:57;;;;;;;6.58;2.30;;;;;;;18.07;68.85;101046.97;1728675;82;20896;-75
2021/06/04 08:13:24;;;;;;;3.25;2.30;;;;;;;18.17;68.13;101045.23;1728176;83;20975;-78
2021/06/04 08:15:56;;;;;;;5.50;3.02;;;;;;;18.24;67.83;101044.22;1728197;83;21528;-77
2021/06/04 08:18:25;;;;;;;3.00;2.27;;;;;;;18.30;67.88;101037.06;1728225;82;21171;-77
2021/06/04 08:20:52;;;;;;;2.95;2.52;;;;;;;18.35;66.35;101041.97;1728785;83;20951;-76
2021/06/04 08:23:27;;;;;;;2.70;2.00;;;;;;;18.43;66.17;101044.79;1728893;83;21382;-76
2021/06/04 08:25:57;;;;;;;6.85;1.95;;;;;;;18.52;65.80;101043.16;1727498;82;20963;-79
2021/06/04 08:28:25;;;;;;;3.65;2.15;;;;;;;18.68;65.52;101045.34;1728391;83;20975;-76
2021/06/04 08:30:52;;;;;;;3.10;2.05;;;;;;;18.85;65.13;101046.03;1728491;83;21162;-77
2021/06/04 08:33:29;;;;;;;5.05;2.08;;;;;;;19.04;64.66;101043.44;1728211;83;20935;-77
2021/06/04 08:35:57;;;;;;;2.50;2.30;;;;;;;19.25;64.73;101042.48;1729370;83;20900;-75
2021/06/04 08:38:25;;;;;;;4.03;2.40;;;;;;;19.50;63.48;101042.45;1728272;83;20963;-77
2021/06/04 08:40:52;;;;;;;1.77;1.60;;;;;;;19.76;63.26;101036.58;1728739;83;20868;-76
2021/06/04 08:43:27;;;;;;;3.90;2.08;;;;;;;20.05;62.07;101028.53;1701761;83;21160;-77
2021/06/04 08:46:24;;;;;;;3.22;1.47;;;;;;;20.39;61.49;101030.70;1728608;82;21040;-76
2021/06/04 08:49:14;;;;;;;3.15;1.77;;;;;;;20.69;59.83;101034.44;1728506;83;21018;-76
2021/06/04 08:52:12;;;;;;;9.83;2.55;;;;;;;21.00;58.87;101025.30;1726282;82;21504;-75
2021/06/04 08:55:04;;;;;;;1.98;1.77;;;;;;;21.29;58.47;101030.43;1728451;83;20944;-75
2021/06/04 08:57:42;;;;;;;6.87;1.98;;;;;;;21.56;57.66;101034.88;1728846;83;21777;-73
2021/06/04 09:00:17;;;;;;;4.75;1.60;;;;;;;21.79;56.46;101034.39;1728266;83;21462;-74
2021/06/04 09:02:50;;;;;;;2.98;1.50;;;;;;;21.93;56.07;101036.01;1725852;82;20943;-75
2021/06/04 09:05:25;;;;;;;7.17;1.90;;;;;;;22.05;54.90;101032.58;1728680;83;20943;-77
2021/06/04 09:07:52;;;;;;;5.85;1.67;;;;;;;22.21;55.20;101040.35;1728406;81;20995;-74
2021/06/04 09:10:36;;;;;;;6.12;1.92;;;;;;;22.38;55.10;101037.32;1728365;83;21568;-76
2021/06/04 09:13:17;;;;;;;2.95;1.65;;;;;;;22.51;54.64;101029.20;1728365;82;20979;-77
2021/06/04 09:15:45;;;;;;;3.00;1.57;;;;;;;22.68;54.16;101021.27;1728776;82;21418;-78
2021/06/04 09:18:38;;;;;;;3.42;1.70;;;;;;;22.86;53.96;101033.19;1728311;83;21507;-77
2021/06/04 09:21:14;;;;;;;2.95;1.70;;;;;;;23.01;53.80;101034.75;1728648;83;20896;-76
2021/06/04 09:23:43;;;;;;;3.65;1.62;;;;;;;23.11;52.48;101033.61;1708719;80;21112;-74
2021/06/04 09:26:15;;;;;;;2.35;1.62;;;;;;;23.14;52.38;101031.11;1728571;83;20947;-77
2021/06/04 09:29:04;;;;;;;4.10;1.65;;;;;;;23.14;52.00;101037.80;1728424;83;20982;-76
2021/06/04 09:31:57;;;;;;;3.05;1.80;;;;;;;23.08;52.07;101033.95;1728345;83;21045;-76
2021/06/04 09:34:34;;;;;;;3.87;1.80;;;;;;;23.02;52.25;101033.77;1728791;83;21521;-77
2021/06/04 09:37:24;;;;;;;4.65;1.82;;;;;;;22.95;52.04;101026.36;1728320;83;21146;-77
2021/06/04 09:39:53;;;;;;;4.05;1.77;;;;;;;22.95;52.56;101038.91;1704113;83;20951;-75
2021/06/04 09:42:29;;;;;;;5.55;1.87;;;;;;;22.94;51.83;101031.38;1728451;83;21025;-76
2021/06/04 09:45:07;;;;;;;4.08;2.05;;;;;;;22.92;51.95;101024.02;1728634;83;21416;-78
2021/06/04 09:47:48;;;;;;;4.42;1.30;;;;;;;22.92;52.34;101022.69;1727319;83;20932;-73
2021/06/04 09:50:20;;;;;;;3.72;1.70;;;;;;;22.93;52.53;101022.17;1725926;82;21100;-78
2021/06/04 09:52:49;;;;;;;4.83;1.87;;;;;;;22.96;52.37;101025.84;1728347;83;20892;-77
2021/06/04 09:55:25;;;;;;;5.25;1.55;;;;;;;23.00;51.73;101020.55;1700641;83;21488;-73
2021/06/04 09:58:17;;;;;;;1.57;1.37;;;;;;;23.05;52.13;101016.04;1728670;83;21061;-76
2021/06/04 10:01:04;;;;;;;3.05;1.27;;;;;;;23.12;51.38;101015.23;1728546;83;21044;-75
2021/06/04 10:03:44;;;;;;;4.30;1.77;;;;;;;23.14;50.60;101016.39;1728427;82;21164;-78
2021/06/04 10:06:35;;;;;;;3.37;1.10;;;;;;;23.14;49.31;101017.73;1728924;83;21377;-76
2021/06/04 10:09:25;;;;;;;4.37;1.22;;;;;;;23.14;49.33;101020.41;1726304;81;21102;-74
2021/06/04 10:12:02;;;;;;;3.40;1.30;;;;;;;23.18;49.59;101023.09;1725700;81;21016;-74
2021/06/04 10:14:54;;;;;;;5.53;1.35;;;;;;;23.24;48.77;101020.27;1725869;83;20943;-75
2021/06/04 10:18:01;;;;;;;3.35;1.12;;;;;;;23.23;48.05;101013.23;1725752;83;20995;-75
2021/06/04 10:20:45;;;;;;;4.75;1.50;;;;;;;23.23;48.95;101022.09;1725799;83;21350;-76
2021/06/04 10:23:35;;;;;;;5.87;2.15;;;;;;;23.23;49.25;101011.38;1725838;83;20999;-84
2021/06/04 10:26:26;;;;;;;3.67;1.20;;;;;;;23.25;48.93;101009.38;1725955;81;20916;-81
2021/06/04 10:29:05;;;;;;;6.58;1.82;;;;;;;23.25;49.44;101007.21;1722469;82;20951;-79
2021/06/04 10:31:52;;;;;;;2.33;1.60;;;;;;;23.20;49.24;101006.37;1691393;83;21128;-80
2021/06/04 10:34:49;;;;;;;1.40;1.20;;;;;;;23.16;49.31;101005.85;1690826;83;20899;-82
2021/06/04 10:37:43;;;;;;;4.58;1.30;;;;;;;23.07;49.15;101010.03;1683730;83;20874;-80
2021/06/04 10:40:33;;;;;;;7.08;1.75;;;;;;;22.98;50.00;101009.14;1691142;83;20993;-81
2021/06/04 10:43:17;;;;;;;10.58;2.22;;;;;;;22.93;50.04;101006.13;1690730;83;20910;-81
2021/06/04 10:45:56;;;;;;;3.70;1.50;;;;;;;22.92;50.78;101008.45;1690589;83;21142;-79
2021/06/04 10:48:32;;;;;;;4.30;1.72;;;;;;;22.90;50.24;101005.09;1690438;83;21044;-78
2021/06/04 10:51:50;;;;;;;6.42;1.77;;;;;;;22.81;50.05;101010.95;1690614;83;20910;-84
2021/06/04 10:54:33;;;;;;;5.70;2.27;;;;;;;22.69;50.34;101013.06;1690775;83;21040;-81
2021/06/04 10:57:24;;;;;;;4.12;1.80;;;;;;;22.50;50.81;101010.16;1691049;83;20921;-82
2021/06/04 10:59:59;;;;;;;4.65;1.80;;;;;;;22.37;51.64;101011.58;1690717;83;21193;-82
2021/06/04 11:02:46;;;;;;;4.55;1.70;;;;;;;22.23;51.82;101018.36;1690879;83;20963;-82
2021/06/04 11:05:42;;;;;;;4.10;1.72;;;;;;;22.10;52.37;101014.27;1690774;85;20894;-81
2021/06/04 11:08:38;;;;;;;4.95;2.35;;;;;;;22.00;52.82;101014.03;1689137;83;20870;-78
2021/06/04 11:11:26;;;;;;;3.40;1.75;;;;;;;21.91;52.88;101011.29;1718051;83;20999;-83
2021/06/04 11:14:24;;;;;;;1.90;1.50;;;;;;;21.87;53.23;101019.27;1717955;82;21437;-81
2021/06/04 11:17:22;;;;;;;4.30;1.45;;;;;;;21.87;52.81;101020.60;1694771;83;20921;-78
2021/06/04 11:20:17;;;;;;;5.05;1.42;;;;;;;21.90;52.91;101020.81;1695830;84;20957;-81
2021/06/04 11:23:11;;;;;;;3.33;1.50;;;;;;;21.82;53.08;101018.08;1695821;83;20925;-79
2021/06/04 11:25:52;;;;;;;3.72;1.40;;;;;;;21.78;54.14;101026.87;1687280;83;21025;-78
2021/06/04 11:28:49;;;;;;;7.03;2.35;;;;;;;21.67;53.82;101027.13;1695802;83;21943;-79
2021/06/04 11:31:38;;;;;;;4.90;1.92;;;;;;;21.48;54.39;101026.31;1695389;83;21025;-80
2021/06/04 11:34:08;;;;;;;4.53;1.60;;;;;;;21.28;54.61;101038.94;1695695;84;21550;-78
2021/06/04 11:36:38;;;;;;;2.02;1.77;;;;;;;21.06;54.91;101040.20;1695849;83;21005;-78
2021/06/04 11:39:17;;;;;;;2.70;1.47;;;;;;;20.85;56.23;101036.95;1672783;84;20975;-81
2021/06/04 11:41:51;;;;;;;5.20;2.33;;;;;;;20.66;57.12;101041.41;1687741;83;21794;-81
2021/06/04 11:44:34;;;;;;;8.15;2.50;;;;;;;20.49;58.41;101035.48;1695871;83;20898;-82
2021/06/04 11:47:15;;;;;;;3.33;2.55;;;;;;;20.32;59.29;101046.44;1694717;83;21705;-81
2021/06/04 11:50:06;;;;;;;6.67;2.45;;;;;;;20.17;60.39;101051.87;1695245;83;21570;-81
2021/06/04 11:52:44;;;;;;;7.42;2.95;;;;;;;20.02;61.27;101056.80;1704875;83;21012;-81
2021/06/04 11:55:29;;;;;;;4.20;2.65;;;;;;;19.86;62.64;101058.71;1718192;82;21035;-83
2021/06/04 11:58:05;;;;;;;4.25;2.17;;;;;;;19.72;63.85;101063.11;1718300;82;20897;-79
2021/06/04 12:00:46;;;;;;;3.20;1.72;;;;;;;19.54;64.08;101063.81;1693476;83;20972;-78
2021/06/04 12:03:18;;;;;;;3.10;2.02;;;;;;;19.37;64.06;101065.33;1718410;83;20924;-79
2021/06/04 12:05:53;;;;;;;5.75;2.00;;;;;;;19.25;64.29;101074.39;1718331;82;21547;-75
2021/06/04 12:08:32;;;;;;;3.27;2.10;;;;;;;19.14;62.63;101075.38;1715066;83;20948;-81